createdAt,value
2023-05-11T00:00:44.658Z,16.30
2023-05-11T00:03:14.650Z,16.42
2023-05-11T00:05:43.067Z,16.45
2023-05-11T00:08:10.987Z,18.90
2023-05-11T00:10:38.842Z,19.13
2023-05-11T00:13:06.765Z,20.15
2023-05-11T00:15:34.557Z,18.88
2023-05-11T00:18:02.403Z,19.17
2023-05-11T00:20:31.626Z,19.15
2023-05-11T00:22:59.517Z,17.20
2023-05-11T00:25:27.507Z,19.43
2023-05-11T00:27:55.360Z,21.50
2023-05-11T00:30:23.272Z,19.52
2023-05-11T00:32:52.536Z,17.52
2023-05-11T00:35:20.800Z,17.35
2023-05-11T00:37:50.420Z,18.23
2023-05-11T00:40:18.381Z,18.73
2023-05-11T00:42:46.303Z,19.90
2023-05-11T00:45:14.047Z,21.25
2023-05-11T00:47:42.085Z,18.48
2023-05-11T00:50:10.533Z,18.27
2023-05-11T00:52:38.460Z,21.33
2023-05-11T00:55:08.483Z,22.30
2023-05-11T00:57:36.419Z,20.08
2023-05-11T01:00:04.864Z,19.70
2023-05-11T01:02:33.082Z,21.88
2023-05-11T01:05:01.493Z,22.45
2023-05-11T01:07:35.952Z,21.25
2023-05-11T01:10:11.776Z,22.67
2023-05-11T01:12:48.946Z,24.40
2023-05-11T01:15:26.111Z,19.38
2023-05-11T01:18:00.313Z,26.77
2023-05-11T01:20:30.949Z,20.98
2023-05-11T01:23:29.984Z,20.98
2023-05-11T01:26:12.036Z,20.38
2023-05-11T01:29:11.635Z,22.40
2023-05-11T01:31:46.916Z,23.15
2023-05-11T01:34:18.389Z,21.63
2023-05-11T01:36:51.964Z,23.35
2023-05-11T01:39:26.306Z,24.92
2023-05-11T01:41:57.249Z,23.35
2023-05-11T01:44:30.748Z,20.83
2023-05-11T01:47:03.020Z,20.10
2023-05-11T01:49:33.735Z,23.27
2023-05-11T01:52:03.771Z,24.58
2023-05-11T01:54:32.625Z,25.50
2023-05-11T01:57:01.770Z,24.88
2023-05-11T01:59:30.364Z,20.73
2023-05-11T02:02:01.331Z,23.67
2023-05-11T02:04:30.836Z,29.27
2023-05-11T02:07:01.106Z,27.73
2023-05-11T02:09:30.419Z,23.95
2023-05-11T02:11:59.778Z,23.92
2023-05-11T02:14:34.204Z,23.15
2023-05-11T02:17:04.401Z,26.08
2023-05-11T02:19:34.667Z,25.20
2023-05-11T02:22:04.134Z,24.88
2023-05-11T02:24:33.747Z,26.48
2023-05-11T02:27:01.758Z,22.58
2023-05-11T02:29:29.789Z,23.90
2023-05-11T02:32:01.788Z,22.10
2023-05-11T02:34:38.256Z,22.95
2023-05-11T02:37:10.717Z,25.25
2023-05-11T02:39:42.026Z,22.38
2023-05-11T02:42:18.254Z,24.80
2023-05-11T02:45:02.227Z,25.35
2023-05-11T02:47:33.273Z,26.23
2023-05-11T02:50:05.828Z,23.83
2023-05-11T02:52:34.393Z,23.75
2023-05-11T02:55:05.007Z,23.55
2023-05-11T02:57:32.967Z,28.02
2023-05-11T03:00:01.844Z,27.50
2023-05-11T03:02:29.807Z,26.40
2023-05-11T03:04:57.741Z,25.73
2023-05-11T03:07:27.112Z,22.40
2023-05-11T03:09:55.523Z,30.13
2023-05-11T03:12:23.568Z,24.85
2023-05-11T03:14:53.321Z,24.23
2023-05-11T03:17:22.062Z,24.25
2023-05-11T03:19:51.286Z,26.98
2023-05-11T03:22:20.521Z,24.15
2023-05-11T03:24:50.520Z,25.38
2023-05-11T03:27:19.672Z,23.50
2023-05-11T03:29:49.813Z,21.25
2023-05-11T03:32:17.958Z,26.33
2023-05-11T03:34:45.913Z,26.42
2023-05-11T03:37:19.177Z,26.85
2023-05-11T03:39:53.230Z,27.73
2023-05-11T03:42:22.142Z,28.27
2023-05-11T03:44:52.945Z,25.17
2023-05-11T03:47:28.546Z,28.17
2023-05-11T03:49:57.473Z,27.83
2023-05-11T03:52:26.112Z,27.48
2023-05-11T03:54:55.414Z,27.58
2023-05-11T03:57:26.534Z,25.73
2023-05-11T03:59:54.411Z,29.60
2023-05-11T04:02:24.486Z,29.92
2023-05-11T04:04:53.322Z,25.92
2023-05-11T04:07:21.404Z,27.58
2023-05-11T04:09:49.610Z,28.25
2023-05-11T04:12:19.096Z,28.52
2023-05-11T04:14:47.477Z,27.42
2023-05-11T04:17:15.320Z,30.35
2023-05-11T04:19:43.156Z,28.70
2023-05-11T04:22:12.213Z,32.38
2023-05-11T04:24:40.268Z,29.63
2023-05-11T04:27:08.101Z,41.15
2023-05-11T04:29:37.481Z,30.65
2023-05-11T04:32:06.022Z,31.70
2023-05-11T04:34:33.846Z,32.95
2023-05-11T04:37:07.118Z,42.63
2023-05-11T04:39:35.060Z,33.70
2023-05-11T04:42:02.948Z,74.35
2023-05-11T04:44:30.793Z,35.03
2023-05-11T04:47:00.028Z,43.53
2023-05-11T04:49:27.907Z,35.53
2023-05-11T04:51:56.265Z,28.30
2023-05-11T04:54:24.122Z,59.65
2023-05-11T04:56:51.998Z,35.65
2023-05-11T04:59:19.841Z,27.38
2023-05-11T05:01:47.727Z,32.20
2023-05-11T05:04:17.542Z,27.85
2023-05-11T05:06:45.434Z,29.38
2023-05-11T05:09:13.280Z,42.55
2023-05-11T05:11:41.227Z,26.27
2023-05-11T05:14:09.154Z,23.27
2023-05-11T05:16:36.996Z,43.10
2023-05-11T05:19:04.939Z,40.45
2023-05-11T05:21:35.730Z,42.53
2023-05-11T05:24:04.281Z,18.77
2023-05-11T05:26:32.111Z,15.43
2023-05-11T05:28:59.957Z,19.05
2023-05-11T05:31:27.979Z,18.33
2023-05-11T05:33:55.970Z,18.25
2023-05-11T05:36:23.893Z,22.48
2023-05-11T05:38:53.214Z,16.38
2023-05-11T05:41:21.595Z,18.00
2023-05-11T05:43:50.009Z,13.60
2023-05-11T05:46:18.051Z,13.23
2023-05-11T05:48:45.878Z,14.10
2023-05-11T05:51:13.840Z,13.35
2023-05-11T05:53:42.179Z,14.88
2023-05-11T05:56:11.643Z,14.98
2023-05-11T05:58:40.636Z,16.90
2023-05-11T06:01:08.510Z,20.23
2023-05-11T06:03:36.488Z,20.02
2023-05-11T06:06:04.588Z,18.63
2023-05-11T06:08:32.459Z,19.75
2023-05-11T06:11:00.394Z,23.43
2023-05-11T06:13:29.781Z,17.85
2023-05-11T06:15:57.597Z,18.80
2023-05-11T06:18:25.528Z,18.27
2023-05-11T06:20:53.469Z,17.38
2023-05-11T06:23:21.351Z,20.27
2023-05-11T06:25:49.466Z,17.10
2023-05-11T06:28:17.296Z,19.58
2023-05-11T06:30:46.780Z,18.92
2023-05-11T06:33:14.558Z,18.35
2023-05-11T06:35:42.346Z,18.58
2023-05-11T06:38:10.500Z,21.98
2023-05-11T06:40:38.312Z,20.25
2023-05-11T06:43:06.465Z,21.10
2023-05-11T06:45:34.521Z,20.38
2023-05-11T06:48:04.482Z,20.85
2023-05-11T06:50:32.399Z,20.88
2023-05-11T06:53:00.248Z,19.67
2023-05-11T06:55:28.160Z,15.25
2023-05-11T06:57:56.085Z,15.23
2023-05-11T07:00:24.069Z,16.25
2023-05-11T07:02:51.899Z,17.83
2023-05-11T07:05:21.147Z,14.00
2023-05-11T07:07:48.954Z,13.48
2023-05-11T07:10:17.185Z,15.80
2023-05-11T07:12:45.288Z,13.80
2023-05-11T07:15:13.422Z,13.35
2023-05-11T07:17:41.424Z,12.93
2023-05-11T07:20:10.487Z,11.85
2023-05-11T07:22:39.734Z,11.43
2023-05-11T07:25:09.592Z,9.98
2023-05-11T07:27:37.402Z,9.52
2023-05-11T07:30:06.136Z,8.38
2023-05-11T07:32:34.052Z,5.00
2023-05-11T07:35:01.907Z,5.35
2023-05-11T07:37:29.787Z,5.78
2023-05-11T07:39:58.964Z,6.65
2023-05-11T07:42:27.372Z,6.60
2023-05-11T07:44:55.199Z,9.68
2023-05-11T07:47:23.528Z,7.28
2023-05-11T07:49:51.526Z,8.40
2023-05-11T07:52:19.406Z,7.55
2023-05-11T07:54:47.671Z,6.88
2023-05-11T07:57:17.132Z,7.38
2023-05-11T07:59:45.424Z,8.73
2023-05-11T08:02:13.500Z,7.43
2023-05-11T08:04:41.597Z,7.50
2023-05-11T08:07:09.471Z,7.82
2023-05-11T08:09:37.428Z,7.85
2023-05-11T08:12:05.377Z,8.52
2023-05-11T08:14:34.597Z,8.35
2023-05-11T08:17:02.487Z,9.15
2023-05-11T08:19:30.358Z,8.73
2023-05-11T08:21:58.295Z,11.38
2023-05-11T08:24:26.193Z,9.02
2023-05-11T08:26:54.027Z,8.77
2023-05-11T08:29:21.942Z,17.42
2023-05-11T08:31:52.391Z,10.27
2023-05-11T08:34:20.540Z,8.20
2023-05-11T08:36:48.762Z,8.02
2023-05-11T08:39:28.564Z,7.68
2023-05-11T08:42:06.908Z,8.40
2023-05-11T08:44:37.815Z,7.68
2023-05-11T08:47:22.090Z,11.13
2023-05-11T08:49:52.970Z,9.40
2023-05-11T08:52:21.502Z,11.02
2023-05-11T08:54:49.787Z,11.43
2023-05-11T08:57:18.480Z,12.70
2023-05-11T08:59:46.971Z,13.05
2023-05-11T09:02:19.818Z,14.07
2023-05-11T09:04:49.273Z,14.38
2023-05-11T09:07:18.591Z,14.95
2023-05-11T09:09:48.015Z,14.43
2023-05-11T09:12:17.450Z,17.48
2023-05-11T09:14:47.041Z,15.02
2023-05-11T09:17:16.554Z,16.27
2023-05-11T09:20:06.527Z,16.80
2023-05-11T09:22:36.532Z,15.07
2023-05-11T09:25:05.488Z,18.10
2023-05-11T09:27:33.786Z,15.05
2023-05-11T09:30:12.597Z,15.90
2023-05-11T09:32:53.073Z,14.88
2023-05-11T09:35:22.854Z,13.52
2023-05-11T09:38:01.505Z,15.77
2023-05-11T09:40:34.087Z,14.77
2023-05-11T09:43:03.244Z,12.38
2023-05-11T09:45:41.612Z,11.07
2023-05-11T09:48:26.020Z,11.27
2023-05-11T09:51:00.932Z,12.52
2023-05-11T09:53:36.680Z,14.27
2023-05-11T09:56:05.622Z,16.73
2023-05-11T09:58:51.703Z,14.05
2023-05-11T10:01:29.310Z,14.02
2023-05-11T10:04:13.446Z,13.48
2023-05-11T10:06:52.918Z,12.90
2023-05-11T10:09:24.358Z,14.25
2023-05-11T10:11:54.238Z,14.23
2023-05-11T10:14:24.327Z,14.27
2023-05-11T10:16:53.271Z,14.88
2023-05-11T10:19:24.469Z,15.43
2023-05-11T10:21:53.590Z,16.10
2023-05-11T10:24:21.798Z,17.00
2023-05-11T10:26:50.850Z,15.45
2023-05-11T10:29:20.534Z,16.20
2023-05-11T10:31:51.134Z,14.90
2023-05-11T10:34:19.657Z,17.92
2023-05-11T10:36:49.851Z,13.45
2023-05-11T10:39:19.992Z,15.52
2023-05-11T10:41:56.274Z,14.73
2023-05-11T10:44:51.932Z,14.38
2023-05-11T10:47:42.262Z,13.75
2023-05-11T10:50:24.084Z,15.82
2023-05-11T10:53:33.179Z,16.73
2023-05-11T10:56:19.680Z,17.10
2023-05-11T10:59:04.926Z,16.08
2023-05-11T11:01:39.363Z,18.30
2023-05-11T11:04:08.519Z,18.13
2023-05-11T11:06:38.830Z,17.27
2023-05-11T11:09:12.746Z,12.60
2023-05-11T11:11:42.641Z,10.48
2023-05-11T11:14:11.702Z,10.63
2023-05-11T11:16:40.213Z,9.93
2023-05-11T11:19:41.903Z,7.88
2023-05-11T11:22:46.994Z,7.40
2023-05-11T11:26:02.905Z,7.13
2023-05-11T11:29:08.972Z,6.45
2023-05-11T11:31:37.721Z,6.78
2023-05-11T11:34:34.292Z,7.50
2023-05-11T11:37:08.516Z,6.07
2023-05-11T11:40:13.978Z,6.72
2023-05-11T11:42:44.749Z,7.22
2023-05-11T11:45:33.470Z,6.95
2023-05-11T11:48:09.391Z,6.68
2023-05-11T11:50:37.618Z,7.22
2023-05-11T11:53:05.549Z,7.05
2023-05-11T11:55:47.974Z,6.72
2023-05-11T11:58:54.294Z,7.05
2023-05-11T12:01:25.832Z,7.32
2023-05-11T12:04:22.045Z,7.25
2023-05-11T12:06:58.753Z,7.70
2023-05-11T12:09:27.466Z,8.10
2023-05-11T12:11:56.207Z,8.60
2023-05-11T12:14:24.649Z,8.45
2023-05-11T12:17:05.255Z,10.23
2023-05-11T12:19:33.310Z,9.13
2023-05-11T12:22:01.928Z,9.18
2023-05-11T12:24:30.028Z,8.20
2023-05-11T12:26:58.644Z,6.85
2023-05-11T12:29:26.963Z,6.78
2023-05-11T12:31:55.859Z,6.57
2023-05-11T12:34:25.041Z,5.45
2023-05-11T12:36:54.531Z,5.85
2023-05-11T12:39:23.894Z,5.55
2023-05-11T12:41:54.706Z,5.40
2023-05-11T12:44:24.757Z,5.80
2023-05-11T12:46:53.320Z,5.72
2023-05-11T12:49:27.212Z,6.75
2023-05-11T12:52:07.706Z,6.57
2023-05-11T12:54:38.631Z,7.10
2023-05-11T12:57:08.068Z,9.00
2023-05-11T12:59:38.390Z,9.93
2023-05-11T13:02:17.207Z,8.00
2023-05-11T13:04:47.886Z,7.80
2023-05-11T13:07:27.601Z,7.57
2023-05-11T13:09:58.993Z,8.68
2023-05-11T13:12:28.046Z,9.23
2023-05-11T13:15:07.122Z,7.72
2023-05-11T13:17:36.610Z,10.35
2023-05-11T13:20:23.766Z,8.32
2023-05-11T13:22:52.519Z,9.10
2023-05-11T13:25:21.514Z,7.80
2023-05-11T13:27:49.990Z,7.47
2023-05-11T13:30:17.949Z,7.50
2023-05-11T13:32:46.183Z,7.95
2023-05-11T13:35:14.648Z,8.10
2023-05-11T13:37:43.852Z,7.75
2023-05-11T13:40:13.261Z,8.95
2023-05-11T13:42:41.609Z,7.10
2023-05-11T13:45:10.677Z,7.45
2023-05-11T13:47:38.604Z,6.93
2023-05-11T13:50:08.017Z,7.07
2023-05-11T13:52:37.137Z,10.20
2023-05-11T13:55:07.338Z,8.20
2023-05-11T13:57:35.333Z,8.10
2023-05-11T14:00:03.380Z,7.75
2023-05-11T14:02:31.327Z,7.35
2023-05-11T14:04:59.197Z,8.15
2023-05-11T14:07:39.209Z,8.02
2023-05-11T14:10:15.612Z,9.20
2023-05-11T14:12:43.697Z,8.38
2023-05-11T14:15:12.394Z,5.43
2023-05-11T14:17:42.650Z,4.70
2023-05-11T14:20:11.977Z,4.03
2023-05-11T14:22:41.633Z,3.78
2023-05-11T14:25:10.221Z,3.80
2023-05-11T14:27:39.558Z,3.25
2023-05-11T14:30:08.967Z,2.50
2023-05-11T14:32:36.859Z,4.22
2023-05-11T14:35:04.907Z,3.30
2023-05-11T14:37:32.742Z,4.25
2023-05-11T14:40:00.898Z,3.60
2023-05-11T14:42:29.680Z,3.65
2023-05-11T14:44:58.903Z,3.50
2023-05-11T14:47:27.037Z,3.10
2023-05-11T14:49:54.897Z,3.05
2023-05-11T14:52:22.822Z,4.55
2023-05-11T14:54:51.446Z,3.08
2023-05-11T14:57:19.362Z,3.20
2023-05-11T14:59:58.306Z,3.10
2023-05-11T15:02:29.645Z,2.70
2023-05-11T15:04:57.596Z,2.78
2023-05-11T15:07:25.637Z,2.75
2023-05-11T15:09:53.935Z,2.78
2023-05-11T15:12:21.790Z,3.10
2023-05-11T15:14:49.834Z,3.00
2023-05-11T15:17:19.400Z,3.50
2023-05-11T15:19:48.820Z,8.63
2023-05-11T15:22:17.656Z,3.95
2023-05-11T15:24:45.693Z,3.80
2023-05-11T15:27:13.792Z,3.65
2023-05-11T15:29:41.763Z,3.08
2023-05-11T15:32:13.483Z,3.72
2023-05-11T15:34:58.102Z,3.83
2023-05-11T15:37:29.193Z,3.90
2023-05-11T15:39:57.232Z,3.10
2023-05-11T15:42:25.426Z,3.35
2023-05-11T15:44:53.401Z,3.20
2023-05-11T15:47:21.517Z,2.85
2023-05-11T15:49:50.598Z,2.80
2023-05-11T15:52:18.601Z,2.80
2023-05-11T15:54:47.857Z,3.50
2023-05-11T15:57:16.573Z,3.55
2023-05-11T15:59:44.534Z,4.80
2023-05-11T16:02:12.560Z,4.00
2023-05-11T16:04:40.437Z,3.55
2023-05-11T16:07:08.426Z,2.53
2023-05-11T16:09:36.209Z,2.28
2023-05-11T16:12:05.887Z,2.30
2023-05-11T16:14:33.775Z,2.47
2023-05-11T16:17:02.197Z,3.13
2023-05-11T16:19:30.449Z,1.58
2023-05-11T16:21:58.597Z,2.30
2023-05-11T16:24:26.833Z,2.03
2023-05-11T16:26:54.760Z,3.00
2023-05-11T16:29:26.051Z,2.53
2023-05-11T16:31:54.102Z,2.92
2023-05-11T16:34:22.093Z,3.33
2023-05-11T16:36:50.673Z,3.50
2023-05-11T16:39:18.569Z,2.75
2023-05-11T16:41:46.842Z,2.97
2023-05-11T16:44:14.619Z,2.80
2023-05-11T16:46:43.821Z,2.65
2023-05-11T16:49:11.629Z,2.53
2023-05-11T16:51:39.457Z,2.22
2023-05-11T16:54:07.544Z,3.03
2023-05-11T16:56:35.379Z,2.50
2023-05-11T16:59:03.353Z,2.15
2023-05-11T17:01:31.934Z,2.42
2023-05-11T17:04:01.200Z,2.63
2023-05-11T17:06:29.188Z,2.15
2023-05-11T17:08:57.002Z,3.17
2023-05-11T17:11:24.874Z,2.80
2023-05-11T17:13:52.668Z,2.50
2023-05-11T17:16:20.574Z,1.58
2023-05-11T17:18:48.698Z,1.60
2023-05-11T17:21:17.941Z,2.80
2023-05-11T17:23:46.082Z,1.55
2023-05-11T17:26:14.789Z,2.17
2023-05-11T17:28:42.684Z,1.92
2023-05-11T17:31:11.648Z,2.28
2023-05-11T17:33:41.087Z,2.08
2023-05-11T17:36:10.397Z,2.22
2023-05-11T17:38:39.606Z,2.03
2023-05-11T17:41:07.568Z,2.35
2023-05-11T17:43:37.904Z,2.00
2023-05-11T17:46:05.967Z,1.90
2023-05-11T17:48:33.985Z,3.65
2023-05-11T17:51:02.367Z,3.03
2023-05-11T17:53:30.229Z,2.28
2023-05-11T17:56:00.811Z,2.15
2023-05-11T17:58:28.815Z,3.53
2023-05-11T18:00:56.618Z,2.30
2023-05-11T18:03:24.749Z,1.95
2023-05-11T18:05:53.087Z,1.98
2023-05-11T18:08:20.990Z,2.47
2023-05-11T18:10:48.862Z,2.38
2023-05-11T18:13:18.173Z,2.10
2023-05-11T18:15:46.351Z,2.45
2023-05-11T18:18:14.408Z,2.53
2023-05-11T18:20:45.288Z,2.58
2023-05-11T18:23:14.093Z,2.47
2023-05-11T18:25:42.663Z,2.42
2023-05-11T18:28:10.665Z,2.85
2023-05-11T18:30:40.183Z,2.03
2023-05-11T18:33:08.087Z,1.92
2023-05-11T18:35:36.100Z,2.45
2023-05-11T18:38:04.952Z,2.30
2023-05-11T18:40:33.043Z,2.50
2023-05-11T18:43:01.196Z,1.92
2023-05-11T18:45:30.376Z,2.38
2023-05-11T18:47:59.836Z,2.60
2023-05-11T18:50:29.678Z,2.85
2023-05-11T18:52:57.679Z,2.75
2023-05-11T18:55:27.726Z,3.53
2023-05-11T18:57:58.202Z,3.70
2023-05-11T19:00:25.985Z,3.38
2023-05-11T19:02:54.590Z,3.67
2023-05-11T19:05:23.765Z,3.83
2023-05-11T19:07:52.202Z,4.03
2023-05-11T19:10:20.350Z,4.40
2023-05-11T19:12:48.625Z,4.43
2023-05-11T19:15:16.490Z,5.45
2023-05-11T19:17:44.724Z,5.93
2023-05-11T19:20:13.903Z,7.43
2023-05-11T19:22:43.106Z,5.65
2023-05-11T19:25:11.578Z,4.90
2023-05-11T19:27:40.130Z,4.78
2023-05-11T19:30:09.615Z,5.18
2023-05-11T19:32:37.496Z,5.22
2023-05-11T19:35:05.803Z,5.95
2023-05-11T19:37:33.921Z,5.25
2023-05-11T19:40:37.278Z,6.20
2023-05-11T19:42:51.060Z,5.53
2023-05-11T19:45:19.147Z,7.38
2023-05-11T19:47:47.030Z,6.05
2023-05-11T19:50:15.454Z,6.38
2023-05-11T19:52:43.237Z,6.78
2023-05-11T19:55:13.914Z,6.22
2023-05-11T19:57:41.770Z,6.95
2023-05-11T20:00:11.760Z,7.07
2023-05-11T20:02:40.181Z,6.45
2023-05-11T20:05:08.592Z,6.30
2023-05-11T20:07:36.558Z,7.00
2023-05-11T20:10:05.722Z,6.32
2023-05-11T20:12:34.879Z,6.53
2023-05-11T20:15:02.737Z,6.90
2023-05-11T20:17:31.226Z,6.68
2023-05-11T20:19:59.074Z,7.20
2023-05-11T20:22:26.856Z,7.55
2023-05-11T20:24:54.623Z,7.65
2023-05-11T20:27:22.473Z,9.15
2023-05-11T20:29:51.834Z,7.68
2023-05-11T20:32:19.635Z,6.30
2023-05-11T20:34:47.892Z,6.75
2023-05-11T20:37:16.538Z,6.53
2023-05-11T20:39:45.278Z,6.80
2023-05-11T20:42:13.300Z,6.75
2023-05-11T20:44:41.141Z,5.78
2023-05-11T20:47:11.302Z,5.95
2023-05-11T20:49:39.643Z,5.88
2023-05-11T20:52:07.960Z,6.30
2023-05-11T20:54:36.292Z,6.63
2023-05-11T20:57:04.955Z,6.57
2023-05-11T21:02:04.406Z,5.38
2023-05-11T21:04:33.999Z,6.10
2023-05-11T21:07:01.852Z,6.75
2023-05-11T21:09:29.967Z,6.93
2023-05-11T21:11:57.945Z,6.07
2023-05-11T21:14:25.920Z,6.43
2023-05-11T21:16:53.759Z,7.80
2023-05-11T21:19:21.561Z,6.22
2023-05-11T21:21:50.810Z,6.75
2023-05-11T21:24:18.820Z,7.10
2023-05-11T21:26:48.162Z,7.20
2023-05-11T21:29:16.307Z,4.63
2023-05-11T21:31:44.283Z,6.03
2023-05-11T21:34:12.152Z,4.93
2023-05-11T21:36:41.274Z,6.43
2023-05-11T21:39:10.458Z,5.40
2023-05-11T21:41:38.266Z,5.40
2023-05-11T21:44:06.424Z,5.13
2023-05-11T21:46:34.405Z,4.40
2023-05-11T21:49:02.239Z,5.00
2023-05-11T21:51:30.050Z,4.63
2023-05-11T21:53:57.871Z,5.78
2023-05-11T21:56:27.006Z,6.80
2023-05-11T21:58:54.859Z,5.28
2023-05-11T22:01:22.775Z,4.63
2023-05-11T22:03:50.895Z,4.60
2023-05-11T22:06:18.793Z,5.35
2023-05-11T22:08:46.817Z,6.45
2023-05-11T22:11:15.059Z,5.15
2023-05-11T22:13:45.032Z,4.28
2023-05-11T22:16:13.103Z,4.97
2023-05-11T22:18:41.069Z,6.93
2023-05-11T22:21:09.057Z,4.88
2023-05-11T22:23:37.070Z,5.22
2023-05-11T22:26:05.741Z,4.93
2023-05-11T22:28:33.783Z,5.90
2023-05-11T22:31:02.945Z,4.97
2023-05-11T22:33:30.705Z,5.35
2023-05-11T22:35:58.988Z,6.57
2023-05-11T22:38:26.999Z,5.38
2023-05-11T22:40:54.841Z,5.07
2023-05-11T22:43:22.612Z,6.82
2023-05-11T22:45:50.714Z,6.05
2023-05-11T22:48:19.917Z,5.10
2023-05-11T22:50:47.836Z,5.00
2023-05-11T22:53:16.183Z,4.90
2023-05-11T22:55:44.224Z,4.65
2023-05-11T22:58:12.136Z,4.65
2023-05-11T23:00:39.979Z,4.10
2023-05-11T23:03:08.182Z,5.65
2023-05-11T23:05:37.418Z,4.25
2023-05-11T23:08:05.233Z,4.90
2023-05-11T23:10:33.044Z,5.15
2023-05-11T23:13:00.900Z,4.40
2023-05-11T23:15:28.733Z,5.60
2023-05-11T23:17:56.652Z,5.40
2023-05-11T23:20:24.685Z,5.00
2023-05-11T23:22:53.887Z,6.30
2023-05-11T23:25:21.656Z,6.50
2023-05-11T23:27:50.116Z,6.32
2023-05-11T23:30:19.061Z,4.97
2023-05-11T23:32:47.157Z,7.50
2023-05-11T23:35:15.496Z,5.40
2023-05-11T23:37:43.326Z,5.35
2023-05-11T23:40:13.098Z,5.38
2023-05-11T23:42:40.904Z,4.95
2023-05-11T23:45:09.544Z,5.57
2023-05-11T23:47:38.299Z,5.50
2023-05-11T23:50:07.312Z,4.60
2023-05-11T23:52:35.127Z,6.32
2023-05-11T23:55:03.034Z,5.97
2023-05-11T23:57:32.232Z,5.45
